createdAt,value
2022-10-20T00:05:46.617Z,1.1036789297658862
2022-10-20T00:12:15.550Z,1.434782608695652
2022-10-20T00:18:47.484Z,0.7759197324414716
2022-10-20T00:27:46.528Z,1.508361204013378
2022-10-20T00:35:33.296Z,1.5351170568561874
2022-10-20T00:42:01.310Z,1.6220735785953178
2022-10-20T00:48:30.974Z,0.8260869565217391
2022-10-20T01:00:26.828Z,0.8695652173913043
2022-10-20T01:06:56.921Z,0.8361204013377926
2022-10-20T01:19:23.019Z,1.2006688963210703
2022-10-20T01:26:04.462Z,0.725752508361204
2022-10-20T01:38:04.315Z,0.9163879598662207
2022-10-20T01:44:33.646Z,1.4414715719063544
2022-10-20T01:51:03.506Z,0.9765886287625418
2022-10-20T01:57:33.078Z,0.8494983277591973
2022-10-20T02:04:02.623Z,1.160535117056856
2022-10-20T02:10:32.424Z,0.8695652173913043
2022-10-20T02:17:02.446Z,0.36789297658862874
2022-10-20T02:23:41.617Z,0.8963210702341137
2022-10-20T02:30:11.220Z,1.1304347826086956
2022-10-20T02:36:40.279Z,0.6254180602006689
2022-10-20T02:43:09.712Z,1.7157190635451505
2022-10-20T02:49:38.653Z,0.9130434782608695
2022-10-20T02:56:06.775Z,0.9297658862876255
2022-10-20T03:02:34.585Z,1.2642140468227425
2022-10-20T03:09:03.780Z,1.1237458193979932
2022-10-20T03:15:32.711Z,0.9297658862876255
2022-10-20T03:23:38.848Z,1.3210702341137124
2022-10-20T03:38:27.785Z,1.3043478260869565
2022-10-20T03:44:56.834Z,1.394648829431438
2022-10-20T03:56:05.929Z,1.0301003344481605
2022-10-20T04:05:58.584Z,1.2274247491638797
2022-10-20T04:12:27.723Z,0.6086956521739131
2022-10-20T04:18:55.788Z,0.8595317725752508
2022-10-20T04:28:33.387Z,0.9331103678929766
2022-10-20T04:35:03.725Z,0.9732441471571907
2022-10-20T04:41:32.405Z,0.9096989966555183
2022-10-20T04:48:02.653Z,1.0434782608695652
2022-10-20T04:54:32.144Z,1.765886287625418
2022-10-20T05:09:18.171Z,0.3076923076923077
2022-10-20T06:44:35.049Z,1.0
2022-10-20T06:51:02.569Z,1.2374581939799332
2022-10-20T06:57:30.306Z,0.7892976588628763
2022-10-20T07:03:57.938Z,0.6655518394648829
2022-10-20T07:10:25.334Z,0.8494983277591973
2022-10-20T07:16:53.874Z,0.9565217391304348
2022-10-20T07:23:41.851Z,1.120401337792642
2022-10-20T07:30:09.977Z,1.0066889632107023
2022-10-20T07:36:38.055Z,0.8060200668896321
2022-10-20T07:52:21.941Z,1.173913043478261
2022-10-20T08:11:20.396Z,0.842809364548495
2022-10-20T08:17:49.662Z,1.3177257525083612
2022-10-20T08:26:44.470Z,1.645484949832776
2022-10-20T08:33:13.123Z,1.0535117056856187
2022-10-20T08:39:41.297Z,1.1772575250836121
2022-10-20T08:56:47.595Z,1.3311036789297659
2022-10-20T09:03:15.888Z,0.919732441471572
2022-10-20T09:10:35.745Z,2.096989966555184
2022-10-20T09:17:04.111Z,0.9565217391304348
2022-10-20T09:23:42.721Z,0.782608695652174
2022-10-20T09:30:10.859Z,0.6755852842809364
2022-10-20T09:36:39.115Z,1.5819397993311037
2022-10-20T09:43:07.898Z,1.6187290969899666
2022-10-20T09:49:36.399Z,1.4381270903010033
2022-10-20T09:56:04.649Z,1.2575250836120402
2022-10-20T10:02:32.860Z,0.9431438127090301
2022-10-20T10:17:10.744Z,1.5752508361204014
2022-10-20T10:25:10.384Z,1.0367892976588629
2022-10-20T10:35:22.181Z,1.4448160535117056
2022-10-20T10:41:50.259Z,1.100334448160535
2022-10-20T10:56:02.286Z,1.3076923076923077
2022-10-20T11:02:30.052Z,1.1036789297658862
2022-10-20T11:14:31.066Z,1.3612040133779264
2022-10-20T11:30:36.117Z,1.1137123745819397
2022-10-20T11:37:03.898Z,1.9732441471571907
2022-10-20T11:43:32.452Z,1.6622073578595318
2022-10-20T11:50:00.701Z,1.1237458193979932
2022-10-20T11:56:29.220Z,1.7725752508361203
2022-10-20T12:02:59.227Z,1.2508361204013378
2022-10-20T12:15:58.536Z,0.6822742474916388
2022-10-20T12:22:26.524Z,1.157190635451505
2022-10-20T12:29:03.232Z,1.100334448160535
2022-10-20T12:46:35.176Z,1.2508361204013378
2022-10-20T12:53:02.888Z,1.8127090301003344
2022-10-20T13:05:37.352Z,1.5785953177257526
2022-10-20T13:12:06.589Z,0.9498327759197325
2022-10-20T13:22:32.840Z,0.862876254180602
2022-10-20T13:29:13.719Z,1.3110367892976589
2022-10-20T13:35:41.473Z,1.117056856187291
2022-10-20T13:42:09.053Z,0.7290969899665551
2022-10-20T13:48:36.978Z,1.4247491638795986
2022-10-20T14:00:24.464Z,0.6086956521739131
2022-10-20T14:06:52.630Z,0.745819397993311
2022-10-20T14:13:20.469Z,1.0133779264214047
2022-10-20T14:20:12.781Z,1.060200668896321
2022-10-20T14:26:51.197Z,0.979933110367893
2022-10-20T14:43:46.112Z,1.1337792642140467
2022-10-20T14:50:13.357Z,1.214046822742475
2022-10-20T14:56:41.003Z,0.9966555183946488
2022-10-20T15:03:09.065Z,1.060200668896321
2022-10-20T15:09:36.721Z,0.9565217391304348
2022-10-20T15:16:05.113Z,1.1505016722408026
2022-10-20T15:22:32.733Z,1.528428093645485
2022-10-20T15:29:12.671Z,1.5250836120401339
2022-10-20T15:35:40.577Z,1.160535117056856
2022-10-20T15:42:08.290Z,1.585284280936455
2022-10-20T15:48:36.527Z,1.3244147157190636
2022-10-20T15:55:06.346Z,1.3444816053511706
2022-10-20T16:03:45.817Z,1.193979933110368
2022-10-20T16:10:15.173Z,1.0234113712374582
2022-10-20T16:16:44.534Z,1.1772575250836121
2022-10-20T16:23:20.897Z,1.3645484949832776
2022-10-20T16:34:52.943Z,1.939799331103679
2022-10-20T16:41:21.490Z,0.8561872909698997
2022-10-20T16:52:40.619Z,2.448160535117057
2022-10-20T17:04:00.532Z,1.137123745819398
2022-10-20T17:10:28.822Z,1.120401337792642
2022-10-20T17:16:57.305Z,1.5819397993311037
2022-10-20T17:23:26.318Z,1.5752508361204014
2022-10-20T17:30:21.490Z,1.0033444816053512
2022-10-20T17:36:52.313Z,1.1505016722408026
2022-10-20T17:43:21.835Z,0.7692307692307693
2022-10-20T17:52:53.520Z,1.1505016722408026
2022-10-20T17:59:21.204Z,1.4882943143812708
2022-10-20T18:05:48.356Z,1.3177257525083612
2022-10-20T18:19:36.074Z,1.6722408026755853
2022-10-20T18:26:15.669Z,1.2909698996655519
2022-10-20T18:32:44.054Z,1.7224080267558528
2022-10-20T18:39:12.422Z,1.8494983277591974
2022-10-20T18:45:39.853Z,2.1036789297658864
2022-10-20T18:52:07.053Z,1.6220735785953178
2022-10-20T18:58:34.688Z,2.1672240802675584
2022-10-20T19:06:52.891Z,1.882943143812709
2022-10-20T19:13:20.261Z,1.4046822742474916
2022-10-20T19:19:48.299Z,1.3812709030100334
2022-10-20T19:47:48.951Z,1.5518394648829432
2022-10-20T19:54:17.024Z,1.3779264214046822
2022-10-20T20:00:46.273Z,1.705685618729097
2022-10-20T20:10:44.729Z,1.765886287625418
2022-10-20T20:17:13.723Z,1.6722408026755853
2022-10-20T20:37:01.904Z,1.6688963210702341
2022-10-20T20:43:30.555Z,1.6923076923076923
2022-10-20T20:57:55.578Z,2.0836120401337794
2022-10-20T21:09:06.016Z,2.471571906354515
2022-10-20T21:15:35.133Z,2.3344481605351173
2022-10-20T21:22:08.464Z,1.9096989966555185
2022-10-20T21:28:54.074Z,1.919732441471572
2022-10-20T21:38:01.047Z,1.785953177257525
2022-10-20T21:44:29.361Z,2.4448160535117056
2022-10-20T21:50:57.427Z,2.0033444816053514
2022-10-20T22:02:26.202Z,1.9866220735785953
2022-10-20T22:08:55.654Z,2.2876254180602005
2022-10-20T22:15:23.691Z,2.274247491638796
2022-10-20T22:21:52.731Z,2.839464882943144
2022-10-20T22:28:36.911Z,2.4648829431438126
2022-10-20T22:35:05.747Z,2.8461538461538463
2022-10-20T22:51:41.660Z,2.7123745819397995
2022-10-20T23:03:05.300Z,1.745819397993311
2022-10-20T23:16:52.641Z,1.705685618729097
2022-10-20T23:26:18.767Z,1.9732441471571907
2022-10-20T23:32:47.362Z,2.0735785953177257
2022-10-20T23:39:14.597Z,2.3946488294314383
2022-10-20T23:45:42.683Z,2.4347826086956523
2022-10-20T23:52:10.573Z,2.682274247491639
2022-10-20T23:58:38.527Z,2.511705685618729
